sensor_id;sensor_type;location;lat;lon;timestamp;P1;durP1;ratioP1;P2;durP2;ratioP2
37309;SDS011;23195;47.744;7.358;2023-08-12T00:01:49;4.63;;;3.30;;
37309;SDS011;23195;47.744;7.358;2023-08-12T00:04:40;4.00;;;3.57;;
37309;SDS011;23195;47.744;7.358;2023-08-12T00:07:17;6.00;;;3.53;;
37309;SDS011;23195;47.744;7.358;2023-08-12T00:09:46;5.37;;;3.03;;
37309;SDS011;23195;47.744;7.358;2023-08-12T00:12:23;6.53;;;3.57;;
37309;SDS011;23195;47.744;7.358;2023-08-12T00:14:52;6.97;;;3.70;;
37309;SDS011;23195;47.744;7.358;2023-08-12T00:17:27;7.60;;;3.67;;
37309;SDS011;23195;47.744;7.358;2023-08-12T00:20:01;4.90;;;3.67;;
37309;SDS011;23195;47.744;7.358;2023-08-12T00:22:48;4.67;;;3.60;;
37309;SDS011;23195;47.744;7.358;2023-08-12T00:25:30;6.17;;;3.40;;
37309;SDS011;23195;47.744;7.358;2023-08-12T00:28:04;4.43;;;3.43;;
37309;SDS011;23195;47.744;7.358;2023-08-12T00:30:41;5.70;;;3.33;;
37309;SDS011;23195;47.744;7.358;2023-08-12T00:33:13;8.87;;;3.57;;
37309;SDS011;23195;47.744;7.358;2023-08-12T00:35:49;4.83;;;3.40;;
37309;SDS011;23195;47.744;7.358;2023-08-12T00:38:49;4.33;;;3.30;;
37309;SDS011;23195;47.744;7.358;2023-08-12T00:41:26;3.97;;;3.57;;
37309;SDS011;23195;47.744;7.358;2023-08-12T00:44:03;7.37;;;3.37;;
37309;SDS011;23195;47.744;7.358;2023-08-12T00:46:51;6.73;;;3.60;;
37309;SDS011;23195;47.744;7.358;2023-08-12T00:49:22;4.70;;;3.50;;
37309;SDS011;23195;47.744;7.358;2023-08-12T00:51:50;4.77;;;3.80;;
37309;SDS011;23195;47.744;7.358;2023-08-12T00:54:26;5.90;;;3.60;;
37309;SDS011;23195;47.744;7.358;2023-08-12T00:56:53;3.93;;;3.23;;
37309;SDS011;23195;47.744;7.358;2023-08-12T00:59:49;4.10;;;3.53;;
37309;SDS011;23195;47.744;7.358;2023-08-12T01:02:18;5.50;;;3.20;;
37309;SDS011;23195;47.744;7.358;2023-08-12T01:05:03;4.03;;;3.00;;
37309;SDS011;23195;47.744;7.358;2023-08-12T01:07:55;5.20;;;3.27;;
37309;SDS011;23195;47.744;7.358;2023-08-12T01:10:23;4.33;;;3.30;;
37309;SDS011;23195;47.744;7.358;2023-08-12T01:15:49;4.33;;;3.60;;
37309;SDS011;23195;47.744;7.358;2023-08-12T01:18:23;3.77;;;3.37;;
37309;SDS011;23195;47.744;7.358;2023-08-12T01:21:03;5.87;;;3.70;;
37309;SDS011;23195;47.744;7.358;2023-08-12T01:23:42;4.77;;;3.63;;
37309;SDS011;23195;47.744;7.358;2023-08-12T01:26:19;4.83;;;3.40;;
37309;SDS011;23195;47.744;7.358;2023-08-12T01:28:47;5.70;;;3.33;;
37309;SDS011;23195;47.744;7.358;2023-08-12T01:31:22;6.47;;;3.37;;
37309;SDS011;23195;47.744;7.358;2023-08-12T01:34:02;5.37;;;3.80;;
37309;SDS011;23195;47.744;7.358;2023-08-12T01:36:37;5.73;;;3.50;;
37309;SDS011;23195;47.744;7.358;2023-08-12T01:39:08;7.20;;;3.40;;
37309;SDS011;23195;47.744;7.358;2023-08-12T01:41:41;3.63;;;3.33;;
37309;SDS011;23195;47.744;7.358;2023-08-12T01:44:09;5.03;;;3.47;;
37309;SDS011;23195;47.744;7.358;2023-08-12T01:46:46;6.17;;;3.43;;
37309;SDS011;23195;47.744;7.358;2023-08-12T01:49:24;3.97;;;3.60;;
37309;SDS011;23195;47.744;7.358;2023-08-12T01:51:52;3.63;;;3.33;;
37309;SDS011;23195;47.744;7.358;2023-08-12T01:54:24;4.00;;;3.60;;
37309;SDS011;23195;47.744;7.358;2023-08-12T01:57:00;5.17;;;3.13;;
37309;SDS011;23195;47.744;7.358;2023-08-12T01:59:36;3.87;;;3.40;;
37309;SDS011;23195;47.744;7.358;2023-08-12T02:02:04;4.17;;;3.50;;
37309;SDS011;23195;47.744;7.358;2023-08-12T02:04:33;4.30;;;3.40;;
37309;SDS011;23195;47.744;7.358;2023-08-12T02:07:12;4.03;;;3.60;;
37309;SDS011;23195;47.744;7.358;2023-08-12T02:12:56;3.60;;;3.20;;
37309;SDS011;23195;47.744;7.358;2023-08-12T02:15:40;4.50;;;3.17;;
37309;SDS011;23195;47.744;7.358;2023-08-12T02:18:09;4.60;;;3.63;;
37309;SDS011;23195;47.744;7.358;2023-08-12T02:20:43;3.97;;;3.10;;
37309;SDS011;23195;47.744;7.358;2023-08-12T02:23:27;6.23;;;3.37;;
37309;SDS011;23195;47.744;7.358;2023-08-12T02:26:01;5.27;;;3.27;;
37309;SDS011;23195;47.744;7.358;2023-08-12T02:28:40;6.07;;;3.00;;
37309;SDS011;23195;47.744;7.358;2023-08-12T02:31:15;4.57;;;3.60;;
37309;SDS011;23195;47.744;7.358;2023-08-12T02:33:53;5.43;;;3.20;;
37309;SDS011;23195;47.744;7.358;2023-08-12T02:36:21;4.80;;;3.40;;
37309;SDS011;23195;47.744;7.358;2023-08-12T02:38:56;3.37;;;3.03;;
37309;SDS011;23195;47.744;7.358;2023-08-12T02:41:22;3.63;;;3.33;;
37309;SDS011;23195;47.744;7.358;2023-08-12T02:43:48;3.60;;;3.00;;
37309;SDS011;23195;47.744;7.358;2023-08-12T02:46:20;4.43;;;3.50;;
37309;SDS011;23195;47.744;7.358;2023-08-12T02:48:50;6.83;;;3.27;;
37309;SDS011;23195;47.744;7.358;2023-08-12T02:51:42;3.97;;;3.57;;
37309;SDS011;23195;47.744;7.358;2023-08-12T02:54:12;4.20;;;3.63;;
37309;SDS011;23195;47.744;7.358;2023-08-12T02:57:06;7.07;;;3.87;;
37309;SDS011;23195;47.744;7.358;2023-08-12T02:59:42;4.77;;;3.57;;
37309;SDS011;23195;47.744;7.358;2023-08-12T03:02:08;6.47;;;3.77;;
37309;SDS011;23195;47.744;7.358;2023-08-12T03:04:43;5.37;;;3.57;;
37309;SDS011;23195;47.744;7.358;2023-08-12T03:07:30;4.93;;;3.30;;
37309;SDS011;23195;47.744;7.358;2023-08-12T03:10:02;6.67;;;3.40;;
37309;SDS011;23195;47.744;7.358;2023-08-12T03:15:33;4.40;;;3.30;;
37309;SDS011;23195;47.744;7.358;2023-08-12T03:18:12;4.33;;;3.53;;
37309;SDS011;23195;47.744;7.358;2023-08-12T03:20:49;4.00;;;3.40;;
37309;SDS011;23195;47.744;7.358;2023-08-12T03:23:15;5.13;;;3.40;;
37309;SDS011;23195;47.744;7.358;2023-08-12T03:25:53;5.90;;;3.63;;
37309;SDS011;23195;47.744;7.358;2023-08-12T03:28:26;5.50;;;3.83;;
37309;SDS011;23195;47.744;7.358;2023-08-12T03:31:03;4.30;;;3.90;;
37309;SDS011;23195;47.744;7.358;2023-08-12T03:33:31;6.03;;;3.93;;
37309;SDS011;23195;47.744;7.358;2023-08-12T03:35:58;4.40;;;3.40;;
37309;SDS011;23195;47.744;7.358;2023-08-12T03:38:36;3.80;;;3.40;;
37309;SDS011;23195;47.744;7.358;2023-08-12T03:41:18;4.03;;;3.50;;
37309;SDS011;23195;47.744;7.358;2023-08-12T03:43:44;5.30;;;3.67;;
37309;SDS011;23195;47.744;7.358;2023-08-12T03:46:21;6.03;;;3.77;;
37309;SDS011;23195;47.744;7.358;2023-08-12T03:48:47;6.63;;;3.60;;
37309;SDS011;23195;47.744;7.358;2023-08-12T03:51:28;4.83;;;3.70;;
37309;SDS011;23195;47.744;7.358;2023-08-12T03:54:09;5.57;;;3.27;;
37309;SDS011;23195;47.744;7.358;2023-08-12T03:56:47;3.60;;;3.30;;
37309;SDS011;23195;47.744;7.358;2023-08-12T03:59:15;4.03;;;3.20;;
37309;SDS011;23195;47.744;7.358;2023-08-12T04:01:48;5.30;;;3.67;;
37309;SDS011;23195;47.744;7.358;2023-08-12T04:04:24;4.93;;;3.50;;
37309;SDS011;23195;47.744;7.358;2023-08-12T04:06:53;5.03;;;3.90;;
37309;SDS011;23195;47.744;7.358;2023-08-12T04:09:31;4.37;;;3.47;;
37309;SDS011;23195;47.744;7.358;2023-08-12T04:12:00;3.30;;;3.00;;
37309;SDS011;23195;47.744;7.358;2023-08-12T04:14:28;5.07;;;3.33;;
37309;SDS011;23195;47.744;7.358;2023-08-12T04:17:38;4.53;;;3.50;;
37309;SDS011;23195;47.744;7.358;2023-08-12T04:20:35;4.17;;;3.37;;
37309;SDS011;23195;47.744;7.358;2023-08-12T04:23:05;3.40;;;3.10;;
37309;SDS011;23195;47.744;7.358;2023-08-12T04:26:06;8.23;;;4.00;;
37309;SDS011;23195;47.744;7.358;2023-08-12T04:28:36;4.77;;;3.73;;
37309;SDS011;23195;47.744;7.358;2023-08-12T04:31:06;4.57;;;3.80;;
37309;SDS011;23195;47.744;7.358;2023-08-12T04:33:47;10.63;;;3.70;;
37309;SDS011;23195;47.744;7.358;2023-08-12T04:36:14;3.80;;;3.40;;
37309;SDS011;23195;47.744;7.358;2023-08-12T04:38:47;3.67;;;3.37;;
37309;SDS011;23195;47.744;7.358;2023-08-12T04:41:25;4.67;;;3.07;;
37309;SDS011;23195;47.744;7.358;2023-08-12T04:44:13;3.60;;;3.30;;
37309;SDS011;23195;47.744;7.358;2023-08-12T04:46:49;6.13;;;3.07;;
37309;SDS011;23195;47.744;7.358;2023-08-12T04:49:18;3.13;;;2.83;;
37309;SDS011;23195;47.744;7.358;2023-08-12T04:51:54;3.60;;;3.00;;
37309;SDS011;23195;47.744;7.358;2023-08-12T04:54:27;5.17;;;3.20;;
37309;SDS011;23195;47.744;7.358;2023-08-12T04:57:09;3.40;;;2.90;;
37309;SDS011;23195;47.744;7.358;2023-08-12T04:59:45;3.60;;;3.27;;
37309;SDS011;23195;47.744;7.358;2023-08-12T05:02:13;3.37;;;3.03;;
37309;SDS011;23195;47.744;7.358;2023-08-12T05:04:46;5.93;;;3.50;;
37309;SDS011;23195;47.744;7.358;2023-08-12T05:07:35;5.73;;;3.20;;
37309;SDS011;23195;47.744;7.358;2023-08-12T05:10:12;3.27;;;2.97;;
37309;SDS011;23195;47.744;7.358;2023-08-12T05:12:43;4.30;;;3.20;;
37309;SDS011;23195;47.744;7.358;2023-08-12T05:15:22;4.53;;;3.07;;
37309;SDS011;23195;47.744;7.358;2023-08-12T05:17:47;7.53;;;3.37;;
37309;SDS011;23195;47.744;7.358;2023-08-12T05:20:13;5.17;;;3.17;;
37309;SDS011;23195;47.744;7.358;2023-08-12T05:22:39;3.83;;;3.40;;
37309;SDS011;23195;47.744;7.358;2023-08-12T05:25:48;3.77;;;3.47;;
37309;SDS011;23195;47.744;7.358;2023-08-12T05:28:41;4.63;;;3.50;;
37309;SDS011;23195;47.744;7.358;2023-08-12T05:31:24;3.47;;;3.17;;
37309;SDS011;23195;47.744;7.358;2023-08-12T05:33:58;6.53;;;3.70;;
37309;SDS011;23195;47.744;7.358;2023-08-12T05:36:36;7.90;;;3.43;;
37309;SDS011;23195;47.744;7.358;2023-08-12T05:39:40;3.87;;;3.33;;
37309;SDS011;23195;47.744;7.358;2023-08-12T05:42:11;4.83;;;3.30;;
37309;SDS011;23195;47.744;7.358;2023-08-12T05:44:49;3.90;;;3.50;;
37309;SDS011;23195;47.744;7.358;2023-08-12T05:47:33;4.37;;;3.27;;
37309;SDS011;23195;47.744;7.358;2023-08-12T05:50:13;6.30;;;3.60;;
37309;SDS011;23195;47.744;7.358;2023-08-12T05:52:51;4.03;;;3.20;;
37309;SDS011;23195;47.744;7.358;2023-08-12T05:55:22;3.70;;;2.97;;
37309;SDS011;23195;47.744;7.358;2023-08-12T05:57:48;4.43;;;3.00;;
37309;SDS011;23195;47.744;7.358;2023-08-12T06:00:19;4.03;;;3.43;;
37309;SDS011;23195;47.744;7.358;2023-08-12T06:02:52;5.13;;;3.17;;
37309;SDS011;23195;47.744;7.358;2023-08-12T06:05:40;5.83;;;3.30;;
37309;SDS011;23195;47.744;7.358;2023-08-12T06:08:15;4.03;;;3.60;;
37309;SDS011;23195;47.744;7.358;2023-08-12T06:17:40;3.50;;;3.20;;
37309;SDS011;23195;47.744;7.358;2023-08-12T07:01:44;3.43;;;2.70;;
37309;SDS011;23195;47.744;7.358;2023-08-12T07:04:48;3.93;;;2.87;;
37309;SDS011;23195;47.744;7.358;2023-08-12T07:08:01;5.37;;;2.80;;
37309;SDS011;23195;47.744;7.358;2023-08-12T07:18:34;5.10;;;3.03;;
37309;SDS011;23195;47.744;7.358;2023-08-12T07:22:00;4.27;;;3.10;;
37309;SDS011;23195;47.744;7.358;2023-08-12T07:28:46;4.67;;;3.53;;
37309;SDS011;23195;47.744;7.358;2023-08-12T07:31:47;3.50;;;3.10;;
37309;SDS011;23195;47.744;7.358;2023-08-12T07:34:26;5.47;;;3.53;;
37309;SDS011;23195;47.744;7.358;2023-08-12T07:37:12;5.03;;;3.40;;
37309;SDS011;23195;47.744;7.358;2023-08-12T07:40:00;5.67;;;4.03;;
37309;SDS011;23195;47.744;7.358;2023-08-12T07:42:26;5.53;;;4.23;;
37309;SDS011;23195;47.744;7.358;2023-08-12T07:44:59;7.17;;;4.37;;
37309;SDS011;23195;47.744;7.358;2023-08-12T10:28:33;5.20;;;3.40;;
37309;SDS011;23195;47.744;7.358;2023-08-12T10:31:45;3.80;;;3.40;;
37309;SDS011;23195;47.744;7.358;2023-08-12T10:34:21;3.43;;;2.87;;
37309;SDS011;23195;47.744;7.358;2023-08-12T10:36:50;3.30;;;3.00;;
37309;SDS011;23195;47.744;7.358;2023-08-12T10:39:22;4.93;;;3.40;;
37309;SDS011;23195;47.744;7.358;2023-08-12T10:41:51;3.60;;;3.20;;
37309;SDS011;23195;47.744;7.358;2023-08-12T10:44:39;3.87;;;3.47;;
37309;SDS011;23195;47.744;7.358;2023-08-12T10:47:16;7.37;;;3.40;;
37309;SDS011;23195;47.744;7.358;2023-08-12T10:49:43;5.60;;;3.50;;
37309;SDS011;23195;47.744;7.358;2023-08-12T10:52:28;5.33;;;3.70;;
37309;SDS011;23195;47.744;7.358;2023-08-12T10:55:15;5.87;;;4.00;;
37309;SDS011;23195;47.744;7.358;2023-08-12T10:57:53;3.83;;;3.43;;
37309;SDS011;23195;47.744;7.358;2023-08-12T11:00:22;4.07;;;3.47;;
37309;SDS011;23195;47.744;7.358;2023-08-12T11:02:53;5.80;;;3.23;;
37309;SDS011;23195;47.744;7.358;2023-08-12T11:09:39;5.13;;;4.13;;
37309;SDS011;23195;47.744;7.358;2023-08-12T11:18:32;5.13;;;3.40;;
37309;SDS011;23195;47.744;7.358;2023-08-12T11:30:48;5.07;;;3.10;;
37309;SDS011;23195;47.744;7.358;2023-08-12T11:37:14;3.43;;;3.13;;
37309;SDS011;23195;47.744;7.358;2023-08-12T11:40:03;6.20;;;3.00;;
37309;SDS011;23195;47.744;7.358;2023-08-12T11:42:44;4.43;;;3.03;;
37309;SDS011;23195;47.744;7.358;2023-08-12T11:45:22;4.33;;;2.97;;
37309;SDS011;23195;47.744;7.358;2023-08-12T11:47:52;4.47;;;3.43;;
37309;SDS011;23195;47.744;7.358;2023-08-12T11:50:24;4.10;;;3.70;;
37309;SDS011;23195;47.744;7.358;2023-08-12T11:52:51;6.33;;;3.70;;
37309;SDS011;23195;47.744;7.358;2023-08-12T11:55:24;4.30;;;3.90;;
37309;SDS011;23195;47.744;7.358;2023-08-12T11:57:54;4.00;;;3.43;;
37309;SDS011;23195;47.744;7.358;2023-08-12T12:03:19;4.17;;;3.53;;
37309;SDS011;23195;47.744;7.358;2023-08-12T12:06:26;4.83;;;3.27;;
37309;SDS011;23195;47.744;7.358;2023-08-12T12:09:22;5.27;;;3.40;;
37309;SDS011;23195;47.744;7.358;2023-08-12T12:11:59;4.63;;;3.10;;
37309;SDS011;23195;47.744;7.358;2023-08-12T12:14:25;4.20;;;3.00;;
37309;SDS011;23195;47.744;7.358;2023-08-12T12:17:08;4.50;;;3.30;;
37309;SDS011;23195;47.744;7.358;2023-08-12T12:19:35;5.17;;;3.50;;
37309;SDS011;23195;47.744;7.358;2023-08-12T12:22:04;4.27;;;3.20;;
37309;SDS011;23195;47.744;7.358;2023-08-12T12:24:30;6.17;;;3.53;;
37309;SDS011;23195;47.744;7.358;2023-08-12T12:26:58;3.63;;;3.20;;
37309;SDS011;23195;47.744;7.358;2023-08-12T12:29:33;5.37;;;3.40;;
37309;SDS011;23195;47.744;7.358;2023-08-12T12:38:33;4.37;;;3.50;;
37309;SDS011;23195;47.744;7.358;2023-08-12T12:41:42;5.50;;;3.30;;
37309;SDS011;23195;47.744;7.358;2023-08-12T12:44:17;5.50;;;3.13;;
37309;SDS011;23195;47.744;7.358;2023-08-12T12:46:53;4.83;;;3.50;;
37309;SDS011;23195;47.744;7.358;2023-08-12T12:49:22;7.67;;;3.30;;
37309;SDS011;23195;47.744;7.358;2023-08-12T12:51:54;4.60;;;3.60;;
37309;SDS011;23195;47.744;7.358;2023-08-12T12:54:22;4.40;;;3.30;;
37309;SDS011;23195;47.744;7.358;2023-08-12T12:59:55;4.27;;;3.40;;
37309;SDS011;23195;47.744;7.358;2023-08-12T13:02:31;3.87;;;3.40;;
37309;SDS011;23195;47.744;7.358;2023-08-12T13:05:07;5.27;;;3.47;;
37309;SDS011;23195;47.744;7.358;2023-08-12T13:07:49;3.83;;;3.37;;
37309;SDS011;23195;47.744;7.358;2023-08-12T13:10:25;8.13;;;3.50;;
37309;SDS011;23195;47.744;7.358;2023-08-12T13:12:51;4.70;;;3.60;;
37309;SDS011;23195;47.744;7.358;2023-08-12T13:15:20;5.27;;;3.20;;
37309;SDS011;23195;47.744;7.358;2023-08-12T13:17:56;5.40;;;3.70;;
37309;SDS011;23195;47.744;7.358;2023-08-12T13:20:22;5.00;;;3.70;;
37309;SDS011;23195;47.744;7.358;2023-08-12T13:22:50;6.40;;;3.50;;
37309;SDS011;23195;47.744;7.358;2023-08-12T13:25:16;7.80;;;3.23;;
37309;SDS011;23195;47.744;7.358;2023-08-12T13:27:45;4.77;;;3.50;;
37309;SDS011;23195;47.744;7.358;2023-08-12T13:30:11;5.23;;;3.07;;
37309;SDS011;23195;47.744;7.358;2023-08-12T13:32:37;6.20;;;3.47;;
37309;SDS011;23195;47.744;7.358;2023-08-12T13:35:03;6.50;;;3.63;;
37309;SDS011;23195;47.744;7.358;2023-08-12T13:37:34;7.33;;;3.70;;
37309;SDS011;23195;47.744;7.358;2023-08-12T13:40:10;5.07;;;3.67;;
37309;SDS011;23195;47.744;7.358;2023-08-12T13:42:37;4.87;;;3.43;;
37309;SDS011;23195;47.744;7.358;2023-08-12T13:45:13;5.57;;;3.63;;
37309;SDS011;23195;47.744;7.358;2023-08-12T13:47:39;7.37;;;4.00;;
37309;SDS011;23195;47.744;7.358;2023-08-12T13:50:05;5.87;;;3.97;;
37309;SDS011;23195;47.744;7.358;2023-08-12T13:52:45;3.90;;;3.47;;
37309;SDS011;23195;47.744;7.358;2023-08-12T13:55:12;6.47;;;3.97;;
37309;SDS011;23195;47.744;7.358;2023-08-12T13:57:40;7.20;;;4.10;;
37309;SDS011;23195;47.744;7.358;2023-08-12T14:00:09;6.13;;;3.67;;
37309;SDS011;23195;47.744;7.358;2023-08-12T14:02:35;4.77;;;3.50;;
37309;SDS011;23195;47.744;7.358;2023-08-12T14:05:06;7.60;;;3.80;;
37309;SDS011;23195;47.744;7.358;2023-08-12T14:07:32;5.17;;;3.80;;
37309;SDS011;23195;47.744;7.358;2023-08-12T14:09:58;9.30;;;4.20;;
37309;SDS011;23195;47.744;7.358;2023-08-12T14:12:25;5.20;;;3.43;;
37309;SDS011;23195;47.744;7.358;2023-08-12T14:14:54;5.50;;;3.57;;
37309;SDS011;23195;47.744;7.358;2023-08-12T14:17:22;9.63;;;3.70;;
37309;SDS011;23195;47.744;7.358;2023-08-12T14:19:48;8.60;;;4.20;;
37309;SDS011;23195;47.744;7.358;2023-08-12T14:22:35;6.20;;;3.63;;
37309;SDS011;23195;47.744;7.358;2023-08-12T14:25:26;4.60;;;3.40;;
37309;SDS011;23195;47.744;7.358;2023-08-12T14:27:58;4.93;;;3.80;;
37309;SDS011;23195;47.744;7.358;2023-08-12T14:30:24;6.67;;;3.33;;
37309;SDS011;23195;47.744;7.358;2023-08-12T14:33:00;5.17;;;3.17;;
37309;SDS011;23195;47.744;7.358;2023-08-12T14:35:28;5.90;;;3.23;;
37309;SDS011;23195;47.744;7.358;2023-08-12T14:37:54;5.03;;;3.10;;
37309;SDS011;23195;47.744;7.358;2023-08-12T14:40:20;6.73;;;3.30;;
37309;SDS011;23195;47.744;7.358;2023-08-12T14:46:03;7.67;;;3.43;;
37309;SDS011;23195;47.744;7.358;2023-08-12T14:48:49;4.43;;;3.07;;
37309;SDS011;23195;47.744;7.358;2023-08-12T14:51:18;7.77;;;3.70;;
37309;SDS011;23195;47.744;7.358;2023-08-12T14:53:44;6.10;;;3.60;;
37309;SDS011;23195;47.744;7.358;2023-08-12T14:56:18;7.43;;;3.80;;
37309;SDS011;23195;47.744;7.358;2023-08-12T14:59:09;6.13;;;3.40;;
37309;SDS011;23195;47.744;7.358;2023-08-12T15:01:45;5.03;;;3.30;;
37309;SDS011;23195;47.744;7.358;2023-08-12T15:04:14;6.17;;;3.70;;
37309;SDS011;23195;47.744;7.358;2023-08-12T15:06:45;4.83;;;3.23;;
37309;SDS011;23195;47.744;7.358;2023-08-12T15:09:32;6.03;;;3.50;;
37309;SDS011;23195;47.744;7.358;2023-08-12T15:11:58;6.63;;;3.47;;
37309;SDS011;23195;47.744;7.358;2023-08-12T15:14:24;5.37;;;3.13;;
37309;SDS011;23195;47.744;7.358;2023-08-12T15:16:55;5.20;;;3.33;;
37309;SDS011;23195;47.744;7.358;2023-08-12T15:19:21;6.57;;;3.07;;
37309;SDS011;23195;47.744;7.358;2023-08-12T15:22:08;5.73;;;3.40;;
37309;SDS011;23195;47.744;7.358;2023-08-12T15:24:34;9.07;;;3.63;;
37309;SDS011;23195;47.744;7.358;2023-08-12T15:27:05;4.10;;;3.20;;
37309;SDS011;23195;47.744;7.358;2023-08-12T15:30:10;5.27;;;3.23;;
37309;SDS011;23195;47.744;7.358;2023-08-12T15:32:36;7.27;;;3.60;;
37309;SDS011;23195;47.744;7.358;2023-08-12T15:35:05;8.27;;;3.23;;
37309;SDS011;23195;47.744;7.358;2023-08-12T15:37:40;4.53;;;3.17;;
37309;SDS011;23195;47.744;7.358;2023-08-12T15:46:13;7.27;;;3.40;;
37309;SDS011;23195;47.744;7.358;2023-08-12T15:48:45;4.23;;;3.40;;
37309;SDS011;23195;47.744;7.358;2023-08-12T15:51:27;7.27;;;3.43;;
37309;SDS011;23195;47.744;7.358;2023-08-12T15:54:03;5.90;;;3.37;;
37309;SDS011;23195;47.744;7.358;2023-08-12T15:56:30;5.40;;;3.10;;
37309;SDS011;23195;47.744;7.358;2023-08-12T15:58:56;5.83;;;3.57;;
37309;SDS011;23195;47.744;7.358;2023-08-12T16:01:22;6.17;;;3.07;;
37309;SDS011;23195;47.744;7.358;2023-08-12T16:03:57;7.27;;;3.30;;
37309;SDS011;23195;47.744;7.358;2023-08-12T16:06:26;6.57;;;3.33;;
37309;SDS011;23195;47.744;7.358;2023-08-12T16:08:53;6.30;;;3.60;;
37309;SDS011;23195;47.744;7.358;2023-08-12T16:11:27;5.50;;;3.60;;
37309;SDS011;23195;47.744;7.358;2023-08-12T16:13:55;4.03;;;3.20;;
37309;SDS011;23195;47.744;7.358;2023-08-12T16:19:49;6.23;;;3.53;;
37309;SDS011;23195;47.744;7.358;2023-08-12T16:22:24;6.20;;;3.53;;
37309;SDS011;23195;47.744;7.358;2023-08-12T16:28:52;8.03;;;3.63;;
37309;SDS011;23195;47.744;7.358;2023-08-12T16:34:24;5.03;;;3.67;;
37309;SDS011;23195;47.744;7.358;2023-08-12T16:36:50;8.00;;;4.30;;
37309;SDS011;23195;47.744;7.358;2023-08-12T16:39:21;5.67;;;3.67;;
37309;SDS011;23195;47.744;7.358;2023-08-12T16:41:50;5.73;;;4.00;;
37309;SDS011;23195;47.744;7.358;2023-08-12T16:44:16;5.40;;;3.77;;
37309;SDS011;23195;47.744;7.358;2023-08-12T16:46:45;7.33;;;3.60;;
37309;SDS011;23195;47.744;7.358;2023-08-12T16:49:19;7.47;;;3.63;;
37309;SDS011;23195;47.744;7.358;2023-08-12T16:51:52;4.23;;;3.50;;
37309;SDS011;23195;47.744;7.358;2023-08-12T16:54:18;6.37;;;3.53;;
37309;SDS011;23195;47.744;7.358;2023-08-12T16:56:47;5.90;;;3.30;;
37309;SDS011;23195;47.744;7.358;2023-08-12T17:02:19;6.67;;;3.23;;
37309;SDS011;23195;47.744;7.358;2023-08-12T17:05:06;8.77;;;3.50;;
37309;SDS011;23195;47.744;7.358;2023-08-12T17:07:54;6.47;;;3.43;;
37309;SDS011;23195;47.744;7.358;2023-08-12T17:13:56;5.67;;;3.47;;
37309;SDS011;23195;47.744;7.358;2023-08-12T17:16:24;5.87;;;3.70;;
37309;SDS011;23195;47.744;7.358;2023-08-12T17:19:11;6.43;;;3.30;;
37309;SDS011;23195;47.744;7.358;2023-08-12T17:21:51;5.73;;;3.40;;
37309;SDS011;23195;47.744;7.358;2023-08-12T17:30:42;6.30;;;3.30;;
37309;SDS011;23195;47.744;7.358;2023-08-12T17:33:08;5.83;;;3.50;;
37309;SDS011;23195;47.744;7.358;2023-08-12T21:16:00;7.57;;;5.40;;
37309;SDS011;23195;47.744;7.358;2023-08-12T21:18:30;9.10;;;5.90;;
37309;SDS011;23195;47.744;7.358;2023-08-12T21:20:55;7.73;;;5.90;;
37309;SDS011;23195;47.744;7.358;2023-08-12T21:23:24;10.73;;;5.47;;
37309;SDS011;23195;47.744;7.358;2023-08-12T21:25:49;6.27;;;5.50;;
37309;SDS011;23195;47.744;7.358;2023-08-12T21:28:15;10.97;;;6.07;;
